Time;durP1;ratioP1;P1;durP2;ratioP2;P2;SDS_P1;SDS_P2;PMS_P1;PMS_P2;Temp;Humidity;BMP_temperature;BMP_pressure;BME280_temperature;BME280_humidity;BME280_pressure;Samples;Min_cycle;Max_cycle;Signal;HPM_P1;HPM_P2
2022/01/19 00:00:51;;;;;;;0.17;0.17;;;4.00;99.90;;;;;;5032312;28;20615;-74
2022/01/19 00:03:17;;;;;;;0.10;0.10;;;4.10;99.90;;;;;;5031974;28;20502;-74
2022/01/19 00:05:43;;;;;;;1.45;1.35;;;4.10;99.90;;;;;;5032809;28;20044;-72
2022/01/19 00:08:10;;;;;;;0.30;0.30;;;4.10;99.90;;;;;;5044638;28;20025;-74
2022/01/19 00:10:36;;;;;;;0.55;0.55;;;4.00;99.90;;;;;;5052699;28;20104;-73
2022/01/19 00:13:01;;;;;;;0.10;0.10;;;4.00;99.90;;;;;;5052296;28;20115;-74
2022/01/19 00:15:28;;;;;;;0.10;0.10;;;3.90;99.90;;;;;;5052599;28;20040;-74
2022/01/19 00:17:57;;;;;;;0.10;0.10;;;3.90;99.90;;;;;;5052496;28;20115;-74
2022/01/19 00:20:23;;;;;;;0.10;0.10;;;3.80;99.90;;;;;;5053169;28;20053;-73
2022/01/19 00:22:50;;;;;;;0.10;0.10;;;3.80;99.90;;;;;;5060796;28;20116;-73
2022/01/19 00:25:16;;;;;;;0.10;0.10;;;3.80;99.90;;;;;;5061872;28;20025;-73
2022/01/19 00:27:42;;;;;;;0.10;0.10;;;3.70;99.90;;;;;;5062688;28;20025;-74
2022/01/19 00:30:08;;;;;;;0.10;0.10;;;3.70;99.90;;;;;;5063146;28;20110;-73
2022/01/19 00:32:34;;;;;;;0.10;0.10;;;3.70;99.90;;;;;;5075724;28;20584;-72
2022/01/19 00:35:00;;;;;;;0.10;0.10;;;3.70;99.90;;;;;;5056191;28;20036;-73
2022/01/19 00:37:25;;;;;;;0.10;0.10;;;3.70;99.90;;;;;;5069400;28;20517;-74
2022/01/19 00:39:52;;;;;;;0.10;0.10;;;3.70;99.90;;;;;;5072991;28;20025;-73
2022/01/19 00:42:18;;;;;;;0.10;0.10;;;3.60;99.90;;;;;;5065749;28;20027;-73
2022/01/19 00:44:44;;;;;;;0.88;0.85;;;3.60;99.90;;;;;;5060201;28;20076;-73
2022/01/19 00:47:10;;;;;;;0.10;0.10;;;3.50;99.90;;;;;;5077334;28;20071;-73
2022/01/19 00:49:35;;;;;;;0.10;0.10;;;3.50;99.90;;;;;;5075466;28;20024;-73
2022/01/19 00:52:01;;;;;;;0.10;0.10;;;3.50;99.90;;;;;;5057240;28;20141;-74
2022/01/19 00:54:27;;;;;;;0.10;0.10;;;3.40;99.90;;;;;;5041611;28;20036;-72
2022/01/19 00:56:52;;;;;;;0.20;0.20;;;3.40;99.90;;;;;;5052662;28;20025;-74
2022/01/19 00:59:18;;;;;;;0.10;0.10;;;3.40;99.90;;;;;;5052679;28;20124;-74
2022/01/19 01:01:43;;;;;;;0.10;0.10;;;3.30;99.90;;;;;;5055863;28;20035;-72
2022/01/19 01:04:09;;;;;;;0.10;0.10;;;3.20;99.90;;;;;;5050821;28;20028;-73
2022/01/19 01:06:35;;;;;;;0.10;0.10;;;3.30;99.90;;;;;;5051417;28;20036;-73
2022/01/19 01:09:01;;;;;;;0.10;0.10;;;3.30;99.90;;;;;;5046938;28;20056;-74
2022/01/19 01:11:34;;;;;;;0.10;0.10;;;3.20;99.90;;;;;;5051138;28;20036;-74
2022/01/19 01:16:37;;;;;;;0.10;0.10;;;3.10;99.90;;;;;;5050885;28;20040;-73
2022/01/19 01:19:06;;;;;;;0.10;0.10;;;3.10;99.90;;;;;;5050894;28;20040;-73
2022/01/19 01:21:32;;;;;;;0.10;0.10;;;3.00;99.90;;;;;;5051005;28;20021;-74
2022/01/19 01:23:58;;;;;;;0.10;0.10;;;3.00;99.90;;;;;;5032083;28;20024;-73
2022/01/19 01:26:24;;;;;;;0.10;0.10;;;3.00;99.90;;;;;;5035049;28;20819;-74
2022/01/19 01:28:49;;;;;;;0.10;0.10;;;3.00;99.90;;;;;;5046171;28;20060;-74
2022/01/19 01:31:15;;;;;;;0.10;0.10;;;3.00;99.90;;;;;;5050827;28;20478;-73
2022/01/19 01:33:41;;;;;;;0.10;0.10;;;3.00;99.90;;;;;;5049958;28;20029;-74
2022/01/19 01:36:08;;;;;;;0.10;0.10;;;2.90;99.90;;;;;;5050823;28;20033;-74
2022/01/19 01:38:34;;;;;;;0.05;0.05;;;2.90;99.90;;;;;;5054982;28;20021;-74
2022/01/19 01:41:00;;;;;;;0.55;0.55;;;2.90;99.90;;;;;;5059832;28;20135;-74
2022/01/19 01:43:26;;;;;;;0.57;0.57;;;2.90;99.90;;;;;;5059011;28;20029;-73
2022/01/19 01:45:57;;;;;;;0.10;0.10;;;2.90;99.90;;;;;;5070452;28;20021;-74
2022/01/19 01:48:25;;;;;;;0.10;0.10;;;2.90;99.90;;;;;;5068081;28;20040;-73
2022/01/19 01:53:37;;;;;;;0.10;0.10;;;2.80;99.90;;;;;;5050013;28;20108;-73
2022/01/19 01:56:16;;;;;;;0.10;0.10;;;2.80;99.90;;;;;;5048555;28;20115;-73
2022/01/19 01:58:44;;;;;;;0.10;0.10;;;2.70;99.90;;;;;;5049329;28;20032;-74
2022/01/19 02:01:11;;;;;;;0.10;0.10;;;2.70;99.90;;;;;;5049822;28;20025;-74
2022/01/19 02:03:41;;;;;;;3.92;3.50;;;2.70;99.90;;;;;;5049955;28;20467;-74
2022/01/19 02:06:29;;;;;;;0.10;0.10;;;2.70;99.90;;;;;;5049644;28;20021;-74
2022/01/19 02:23:33;;;;;;;0.10;0.10;;;2.70;99.90;;;;;;5029974;28;20454;-73
2022/01/19 02:26:02;;;;;;;0.10;0.10;;;2.80;99.90;;;;;;5055867;28;20035;-73
2022/01/19 02:41:46;;;;;;;0.57;0.57;;;2.80;99.90;;;;;;5067703;28;20094;-74
2022/01/19 02:44:16;;;;;;;0.10;0.10;;;2.90;99.90;;;;;;5062779;28;20021;-73
2022/01/19 02:49:40;;;;;;;0.17;0.17;;;2.90;99.90;;;;;;5026014;28;20054;-73
2022/01/19 02:52:06;;;;;;;0.10;0.10;;;2.90;99.90;;;;;;5048769;28;20514;-74
2022/01/19 02:54:33;;;;;;;0.10;0.10;;;2.90;99.90;;;;;;5050725;28;20064;-74
2022/01/19 02:57:01;;;;;;;0.10;0.10;;;2.90;99.90;;;;;;5036537;28;20026;-73
2022/01/19 03:10:31;;;;;;;0.10;0.10;;;2.60;99.90;;;;;;5050527;28;20397;-74
2022/01/19 03:12:57;;;;;;;0.10;0.10;;;2.50;99.90;;;;;;5048781;28;20034;-74
2022/01/19 03:15:23;;;;;;;0.10;0.10;;;2.50;99.90;;;;;;5061978;28;20410;-73
2022/01/19 03:17:48;;;;;;;0.10;0.10;;;2.50;99.90;;;;;;5062914;28;20055;-73
2022/01/19 03:20:14;;;;;;;0.10;0.10;;;2.60;99.90;;;;;;5049277;28;20505;-74
2022/01/19 03:22:48;;;;;;;0.20;0.20;;;2.60;99.90;;;;;;5049082;28;20094;-74
2022/01/19 03:25:14;;;;;;;0.10;0.10;;;2.60;99.90;;;;;;5050074;28;20066;-74
2022/01/19 03:27:40;;;;;;;0.20;0.20;;;2.60;99.90;;;;;;5050570;28;20410;-73
2022/01/19 03:30:08;;;;;;;0.10;0.10;;;2.50;99.90;;;;;;5052906;28;20474;-73
2022/01/19 03:32:33;;;;;;;0.10;0.10;;;2.50;99.90;;;;;;5053772;28;20029;-74
2022/01/19 03:35:00;;;;;;;0.10;0.10;;;2.40;99.90;;;;;;5053003;28;20131;-74
2022/01/19 03:37:25;;;;;;;0.10;0.10;;;2.20;99.90;;;;;;5052390;28;20032;-73
2022/01/19 03:39:51;;;;;;;0.10;0.10;;;2.10;99.90;;;;;;5052736;28;20021;-73
2022/01/19 03:42:17;;;;;;;0.10;0.10;;;2.00;99.90;;;;;;5052194;28;20622;-73
2022/01/19 03:44:44;;;;;;;0.10;0.10;;;1.90;99.90;;;;;;5052660;28;20036;-73
2022/01/19 03:47:09;;;;;;;0.10;0.10;;;1.90;99.90;;;;;;5052152;28;20535;-73
2022/01/19 03:49:35;;;;;;;0.10;0.10;;;1.90;99.90;;;;;;5052991;28;20127;-74
2022/01/19 03:52:03;;;;;;;0.10;0.10;;;2.00;99.90;;;;;;5059401;28;20021;-74
2022/01/19 03:54:37;;;;;;;0.10;0.10;;;2.00;99.90;;;;;;5035941;28;20034;-73
2022/01/19 03:57:03;;;;;;;0.10;0.10;;;2.10;99.90;;;;;;5042596;28;20585;-74
2022/01/19 03:59:29;;;;;;;0.10;0.10;;;2.00;99.90;;;;;;5053453;28;20028;-74
2022/01/19 04:01:57;;;;;;;0.10;0.10;;;2.10;99.90;;;;;;5068676;28;20025;-74
2022/01/19 04:09:20;;;;;;;0.10;0.10;;;2.10;99.90;;;;;;5052337;28;20037;-73
2022/01/19 04:11:45;;;;;;;0.10;0.10;;;2.10;99.90;;;;;;5052199;28;20029;-74
2022/01/19 04:14:29;;;;;;;0.40;0.40;;;2.10;99.90;;;;;;5056921;28;20165;-74
2022/01/19 04:16:56;;;;;;;0.10;0.10;;;2.10;99.90;;;;;;5052118;28;20036;-74
2022/01/19 04:21:53;;;;;;;0.10;0.10;;;2.00;99.90;;;;;;5052284;28;20025;-73
2022/01/19 04:24:20;;;;;;;0.10;0.10;;;2.00;99.90;;;;;;5051600;28;20032;-74
2022/01/19 04:26:50;;;;;;;0.20;0.20;;;2.00;99.90;;;;;;5052911;28;20037;-73
2022/01/19 04:29:15;;;;;;;0.00;0.00;;;2.00;99.90;;;;;;5051791;28;20094;-73
2022/01/19 04:31:41;;;;;;;0.10;0.10;;;1.90;99.90;;;;;;5051695;28;20490;-73
2022/01/19 04:34:07;;;;;;;0.10;0.10;;;1.90;99.90;;;;;;5052288;28;20475;-73
2022/01/19 04:39:26;;;;;;;0.10;0.10;;;1.90;99.90;;;;;;5051036;28;20445;-74
2022/01/19 05:06:01;;;;;;;0.10;0.10;;;1.60;99.90;;;;;;5051664;28;20021;-74
2022/01/19 05:13:39;;;;;;;0.10;0.10;;;1.50;99.90;;;;;;5050776;28;20032;-73
2022/01/19 05:16:05;;;;;;;0.10;0.10;;;2.30;99.90;;;;;;5050557;28;20033;-74
2022/01/19 05:18:31;;;;;;;0.10;0.10;;;1.70;99.90;;;;;;5051002;28;20028;-74
2022/01/19 05:20:57;;;;;;;0.10;0.10;;;1.80;99.90;;;;;;5051084;28;20087;-73
2022/01/19 05:23:23;;;;;;;0.10;0.10;;;1.80;99.90;;;;;;5051720;28;20017;-74
2022/01/19 05:25:49;;;;;;;0.15;0.15;;;1.90;99.90;;;;;;5050458;28;20021;-74
2022/01/19 05:28:16;;;;;;;0.10;0.10;;;2.00;99.90;;;;;;5050772;28;20770;-73
2022/01/19 05:30:41;;;;;;;0.22;0.22;;;1.90;99.90;;;;;;5050732;28;20025;-75
2022/01/19 05:33:08;;;;;;;1.75;1.65;;;1.70;99.90;;;;;;5046910;28;20032;-73
2022/01/19 05:35:34;;;;;;;0.10;0.10;;;2.00;99.90;;;;;;5054918;28;20021;-72
2022/01/19 05:37:59;;;;;;;0.35;0.35;;;2.00;99.90;;;;;;5050564;28;20033;-75
2022/01/19 05:40:25;;;;;;;0.10;0.10;;;1.80;99.90;;;;;;5050794;28;20108;-73
2022/01/19 05:42:51;;;;;;;2.83;1.33;;;1.70;99.90;;;;;;5050229;28;20040;-73
2022/01/19 05:45:17;;;;;;;0.10;0.10;;;1.70;99.90;;;;;;5050072;28;20072;-73
2022/01/19 05:47:45;;;;;;;0.20;0.20;;;1.70;99.90;;;;;;5050424;28;20056;-74
2022/01/19 05:50:11;;;;;;;0.55;0.55;;;1.70;99.90;;;;;;5048217;28;20035;-73
2022/01/19 05:52:37;;;;;;;0.10;0.10;;;1.70;99.90;;;;;;5048990;28;20079;-74
2022/01/19 05:55:03;;;;;;;0.82;0.82;;;1.70;99.90;;;;;;5054954;28;20061;-73
2022/01/19 05:57:29;;;;;;;0.10;0.10;;;1.70;99.90;;;;;;5067102;22;20406;-73
2022/01/19 05:59:54;;;;;;;0.10;0.10;;;1.70;99.90;;;;;;5048969;28;20108;-73
2022/01/19 06:02:20;;;;;;;0.10;0.10;;;1.60;99.90;;;;;;5047878;28;20478;-74
2022/01/19 06:04:46;;;;;;;0.10;0.10;;;1.50;99.90;;;;;;5035601;28;20029;-74
2022/01/19 06:07:12;;;;;;;0.10;0.10;;;1.40;99.90;;;;;;5034907;28;20025;-75
2022/01/19 06:12:09;;;;;;;0.10;0.10;;;1.50;99.90;;;;;;5050161;28;20052;-73
2022/01/19 06:14:37;;;;;;;0.10;0.10;;;1.60;99.90;;;;;;5049062;28;20031;-73
2022/01/19 06:17:05;;;;;;;0.10;0.10;;;1.60;99.90;;;;;;5023600;28;20037;-73
2022/01/19 06:19:31;;;;;;;0.68;0.68;;;1.60;99.90;;;;;;5048697;28;20033;-74
2022/01/19 06:21:57;;;;;;;0.10;0.10;;;1.60;99.90;;;;;;5030355;28;20032;-74
2022/01/19 06:24:23;;;;;;;0.82;0.82;;;1.60;99.90;;;;;;5046992;28;20391;-74
2022/01/19 06:26:49;;;;;;;0.10;0.10;;;1.60;99.90;;;;;;5028857;28;20029;-74
2022/01/19 06:29:14;;;;;;;0.10;0.10;;;1.70;99.90;;;;;;5038657;28;20025;-74
2022/01/19 06:31:40;;;;;;;0.10;0.10;;;1.60;99.90;;;;;;5046510;28;20045;-74
2022/01/19 06:34:07;;;;;;;0.10;0.10;;;1.60;99.90;;;;;;5047433;28;20064;-74
2022/01/19 06:36:33;;;;;;;0.10;0.10;;;1.60;99.90;;;;;;5048579;28;20060;-74
2022/01/19 06:38:59;;;;;;;0.10;0.10;;;1.70;99.90;;;;;;5048247;28;20032;-74
2022/01/19 06:41:25;;;;;;;0.10;0.10;;;1.80;99.90;;;;;;5041081;28;20071;-74
2022/01/19 06:43:51;;;;;;;0.10;0.10;;;1.90;99.90;;;;;;5028165;28;20471;-74
2022/01/19 06:46:16;;;;;;;0.65;0.65;;;2.00;99.90;;;;;;5033978;28;20116;-74
2022/01/19 06:48:42;;;;;;;0.80;0.80;;;2.00;99.90;;;;;;5047624;28;20037;-74
2022/01/19 06:51:08;;;;;;;0.10;0.10;;;2.10;99.90;;;;;;5048150;28;20128;-75
2022/01/19 06:53:34;;;;;;;0.30;0.30;;;2.20;99.90;;;;;;5046393;28;20116;-74
2022/01/19 06:55:59;;;;;;;0.10;0.10;;;2.00;99.90;;;;;;5047023;28;20478;-74
2022/01/19 06:58:26;;;;;;;0.10;0.10;;;2.40;99.90;;;;;;5046562;28;20033;-74
2022/01/19 07:00:52;;;;;;;0.10;0.10;;;2.10;99.90;;;;;;5047938;28;20478;-74
2022/01/19 07:03:18;;;;;;;0.10;0.10;;;2.10;99.90;;;;;;5046819;28;20025;-75
2022/01/19 07:05:43;;;;;;;0.13;0.13;;;2.00;99.90;;;;;;5050886;28;20450;-73
2022/01/19 07:08:09;;;;;;;0.10;0.10;;;2.00;99.90;;;;;;5056188;28;20093;-73
2022/01/19 07:10:35;;;;;;;0.10;0.10;;;2.00;99.90;;;;;;5050938;28;20037;-73
2022/01/19 07:13:03;;;;;;;0.10;0.10;;;2.00;99.90;;;;;;5053401;28;20037;-75
2022/01/19 07:15:29;;;;;;;0.10;0.10;;;2.00;99.90;;;;;;5055006;28;20037;-75
2022/01/19 07:17:54;;;;;;;0.10;0.10;;;2.10;99.90;;;;;;5041678;28;20041;-76
2022/01/19 07:20:20;;;;;;;0.10;0.10;;;1.90;99.90;;;;;;5052084;28;20094;-75
2022/01/19 07:22:47;;;;;;;0.10;0.10;;;1.90;99.90;;;;;;5048336;28;20036;-72
2022/01/19 07:25:14;;;;;;;0.10;0.10;;;2.00;99.90;;;;;;5046305;28;20489;-71
2022/01/19 07:27:40;;;;;;;0.10;0.10;;;1.90;99.90;;;;;;5050145;28;20090;-73
2022/01/19 07:30:06;;;;;;;0.10;0.10;;;1.90;99.90;;;;;;5053524;28;20641;-73
2022/01/19 07:32:34;;;;;;;0.10;0.10;;;1.90;99.90;;;;;;5044359;28;20104;-74
2022/01/19 07:35:00;;;;;;;0.35;0.35;;;3.00;99.90;;;;;;5044013;28;20049;-73
2022/01/19 07:37:26;;;;;;;0.15;0.15;;;1.90;99.90;;;;;;5049587;28;20017;-73
2022/01/19 07:39:53;;;;;;;0.10;0.10;;;1.90;99.90;;;;;;5050923;28;20047;-73
2022/01/19 07:42:19;;;;;;;0.17;0.17;;;1.90;99.90;;;;;;5051045;28;20485;-74
2022/01/19 07:44:45;;;;;;;0.10;0.10;;;1.90;99.90;;;;;;5054291;28;20043;-73
2022/01/19 07:47:11;;;;;;;0.35;0.35;;;1.90;99.90;;;;;;5052672;28;20613;-74
2022/01/19 07:49:36;;;;;;;0.10;0.10;;;1.90;99.90;;;;;;5053846;28;20025;-72
2022/01/19 07:52:02;;;;;;;0.13;0.13;;;1.90;99.90;;;;;;5053055;28;20033;-73
2022/01/19 07:54:28;;;;;;;0.10;0.10;;;1.80;99.90;;;;;;5055181;28;20029;-73
2022/01/19 07:56:54;;;;;;;0.10;0.10;;;1.80;99.90;;;;;;5055491;28;20028;-74
2022/01/19 07:59:20;;;;;;;0.10;0.10;;;1.80;99.90;;;;;;5056047;28;20041;-73
2022/01/19 08:01:46;;;;;;;0.63;0.63;;;1.80;99.90;;;;;;5054934;28;20073;-74
2022/01/19 08:04:12;;;;;;;0.57;0.57;;;1.80;99.90;;;;;;5058515;28;20029;-74
2022/01/19 08:06:38;;;;;;;0.20;0.20;;;1.80;99.90;;;;;;5029493;28;20059;-74
2022/01/19 08:09:05;;;;;;;0.10;0.10;;;1.80;99.90;;;;;;5053630;28;20055;-74
2022/01/19 08:11:31;;;;;;;0.80;0.80;;;1.90;99.90;;;;;;5049556;28;20029;-73
2022/01/19 08:13:57;;;;;;;0.10;0.10;;;1.90;99.90;;;;;;5044610;28;20075;-74
2022/01/19 08:16:22;;;;;;;0.10;0.10;;;1.90;99.90;;;;;;5026908;28;20445;-73
2022/01/19 08:18:48;;;;;;;0.40;0.40;;;1.90;99.90;;;;;;5052074;28;20064;-73
2022/01/19 08:21:14;;;;;;;0.00;0.00;;;1.90;99.90;;;;;;5051182;28;20152;-73
2022/01/19 08:23:40;;;;;;;0.10;0.10;;;1.90;99.90;;;;;;5049180;28;20112;-72
2022/01/19 08:26:06;;;;;;;0.10;0.10;;;1.90;99.90;;;;;;5049930;28;20427;-73
2022/01/19 08:28:31;;;;;;;0.10;0.10;;;1.90;99.90;;;;;;5041913;28;20561;-73
2022/01/19 08:30:57;;;;;;;0.10;0.10;;;1.90;99.90;;;;;;5042921;28;20040;-73
2022/01/19 08:33:23;;;;;;;0.10;0.10;;;1.90;99.90;;;;;;5044219;28;20029;-73
2022/01/19 08:35:49;;;;;;;0.10;0.10;;;1.90;99.90;;;;;;5048642;28;20128;-74
2022/01/19 08:38:14;;;;;;;0.10;0.10;;;2.00;99.90;;;;;;5055301;28;20028;-74
2022/01/19 08:40:40;;;;;;;0.10;0.10;;;2.00;99.90;;;;;;5045761;28;20033;-73
2022/01/19 08:43:06;;;;;;;0.10;0.10;;;2.10;99.90;;;;;;5049079;28;20025;-73
2022/01/19 08:45:33;;;;;;;2.10;1.95;;;2.10;99.90;;;;;;5048325;28;20497;-72
2022/01/19 08:47:59;;;;;;;0.10;0.10;;;2.10;99.90;;;;;;5049697;28;20025;-74
2022/01/19 08:50:25;;;;;;;0.10;0.10;;;2.10;99.90;;;;;;5046024;28;20033;-73
2022/01/19 08:52:50;;;;;;;3.40;3.03;;;2.10;99.90;;;;;;5044668;28;20485;-74
2022/01/19 08:55:16;;;;;;;0.10;0.10;;;2.10;99.90;;;;;;5047884;28;20025;-72
2022/01/19 08:57:44;;;;;;;5.50;3.20;;;2.10;99.90;;;;;;5049885;28;20123;-74
2022/01/19 09:00:12;;;;;;;0.50;0.50;;;2.10;99.90;;;;;;5044025;28;20021;-73
2022/01/19 09:02:38;;;;;;;0.10;0.10;;;2.20;99.90;;;;;;5045288;28;20021;-73
2022/01/19 09:05:04;;;;;;;1.17;1.17;;;2.20;99.90;;;;;;5047192;28;20051;-73
2022/01/19 09:07:30;;;;;;;0.10;0.10;;;2.40;99.90;;;;;;5046742;28;20098;-74
2022/01/19 09:09:56;;;;;;;0.10;0.10;;;2.50;99.90;;;;;;5046236;28;20033;-73
2022/01/19 09:12:21;;;;;;;0.10;0.10;;;2.70;99.90;;;;;;5044030;28;20033;-73
2022/01/19 09:14:47;;;;;;;0.10;0.10;;;2.80;99.90;;;;;;5048294;28;20036;-74
2022/01/19 09:17:13;;;;;;;0.08;0.08;;;2.90;99.90;;;;;;5052536;28;20481;-73
2022/01/19 09:19:39;;;;;;;0.10;0.10;;;3.10;99.90;;;;;;5046960;28;20028;-74
2022/01/19 09:22:09;;;;;;;0.75;0.75;;;3.10;99.90;;;;;;5030134;28;20765;-74
2022/01/19 09:24:37;;;;;;;0.85;0.85;;;3.20;99.90;;;;;;5048011;28;20460;-76
2022/01/19 09:27:04;;;;;;;0.10;0.10;;;3.30;99.90;;;;;;5050113;28;20039;-73
2022/01/19 09:29:30;;;;;;;0.10;0.10;;;3.30;99.90;;;;;;5047263;28;20029;-76
2022/01/19 09:31:57;;;;;;;0.10;0.10;;;3.30;99.90;;;;;;5042635;28;20041;-72
2022/01/19 09:34:23;;;;;;;0.10;0.10;;;3.40;99.90;;;;;;5044588;28;20021;-71
2022/01/19 09:36:49;;;;;;;0.10;0.10;;;3.40;99.90;;;;;;5051120;28;20028;-73
2022/01/19 09:39:20;;;;;;;0.00;0.00;;;3.50;99.90;;;;;;5050004;28;20064;-73
2022/01/19 09:41:48;;;;;;;0.55;0.55;;;3.50;99.90;;;;;;5051390;28;20390;-73
2022/01/19 09:44:21;;;;;;;0.10;0.10;;;3.60;99.90;;;;;;5051031;28;20119;-73
2022/01/19 09:46:47;;;;;;;;;;;3.60;99.90;;;;;;5048377;28;20029;-73
2022/01/19 09:49:13;;;;;;;0.10;0.10;;;3.60;99.90;;;;;;5042341;28;19920;-73
2022/01/19 09:51:43;;;;;;;0.20;0.20;;;3.70;99.90;;;;;;5039210;28;20021;-73
2022/01/19 09:54:13;;;;;;;0.10;0.10;;;3.70;99.90;;;;;;5049613;28;20126;-72
2022/01/19 09:56:40;;;;;;;0.10;0.10;;;3.90;99.90;;;;;;5047816;28;20049;-73
2022/01/19 09:59:07;;;;;;;0.20;0.20;;;4.00;99.90;;;;;;5046482;28;20043;-73
2022/01/19 10:01:33;;;;;;;0.20;0.20;;;4.10;99.90;;;;;;5042204;28;20075;-73
2022/01/19 10:04:19;;;;;;;0.10;0.10;;;4.20;99.90;;;;;;5045953;28;20020;-73
2022/01/19 10:06:45;;;;;;;0.00;0.00;;;4.20;99.90;;;;;;5049143;28;20168;-73
2022/01/19 10:09:10;;;;;;;2.78;2.65;;;4.20;99.90;;;;;;5044267;28;20139;-73
2022/01/19 10:16:59;;;;;;;0.10;0.10;;;4.30;99.90;;;;;;5049084;28;20033;-73
2022/01/19 10:17:10;;;;;;;0.00;0.00;;;4.40;99.90;;;;;;5045378;28;20031;-72
2022/01/19 10:19:50;;;;;;;0.13;0.13;;;4.50;99.90;;;;;;5047530;28;20100;-73
2022/01/19 10:22:25;;;;;;;0.10;0.10;;;4.50;99.90;;;;;;5046173;28;20029;-72
2022/01/19 10:25:01;;;;;;;0.10;0.10;;;4.60;99.90;;;;;;5048485;28;20032;-73
2022/01/19 10:27:32;;;;;;;0.03;0.03;;;4.70;99.90;;;;;;5046319;28;20028;-73
2022/01/19 10:30:04;;;;;;;0.10;0.10;;;4.80;99.90;;;;;;5046138;28;20017;-73
2022/01/19 10:32:32;;;;;;;0.10;0.10;;;4.80;99.90;;;;;;5044354;28;20048;-73
2022/01/19 10:35:22;;;;;;;1.13;1.13;;;4.90;99.90;;;;;;5054380;28;20017;-74
2022/01/19 10:38:09;;;;;;;0.10;0.10;;;5.00;99.90;;;;;;5044625;28;20029;-73
2022/01/19 10:40:38;;;;;;;0.00;0.00;;;5.00;99.90;;;;;;5041578;28;20306;-73
2022/01/19 10:43:26;;;;;;;0.10;0.10;;;5.10;99.90;;;;;;5040960;28;20048;-72
2022/01/19 10:45:53;;;;;;;0.10;0.10;;;5.10;99.90;;;;;;5045811;28;20016;-72
2022/01/19 10:48:34;;;;;;;0.10;0.10;;;5.20;99.90;;;;;;5045512;28;20180;-74
2022/01/19 10:51:17;;;;;;;0.25;0.25;;;5.30;99.90;;;;;;5034527;28;20036;-73
2022/01/19 10:53:45;;;;;;;;;;;5.30;99.90;;;;;;5044354;28;20048;-74
2022/01/19 10:56:29;;;;;;;0.20;0.20;;;5.30;99.90;;;;;;5050316;28;19958;-73
2022/01/19 10:59:00;;;;;;;0.10;0.10;;;5.40;99.90;;;;;;5045013;28;20025;-72
2022/01/19 11:01:34;;;;;;;0.63;0.63;;;5.40;99.90;;;;;;5047174;28;20510;-73
2022/01/19 11:04:22;;;;;;;0.10;0.10;;;5.40;99.90;;;;;;5030363;28;20070;-73
2022/01/19 11:06:50;;;;;;;0.10;0.10;;;5.50;99.90;;;;;;5044490;28;20021;-73
2022/01/19 11:09:18;;;;;;;0.10;0.10;;;5.60;99.90;;;;;;5042527;28;20047;-73
2022/01/19 11:11:44;;;;;;;0.35;0.35;;;5.50;99.90;;;;;;5049272;28;20033;-73
2022/01/19 11:14:15;;;;;;;0.10;0.10;;;5.60;99.90;;;;;;5053136;28;20036;-74
2022/01/19 11:16:42;;;;;;;0.20;0.20;;;5.60;99.90;;;;;;5050048;28;20124;-74
2022/01/19 11:19:11;;;;;;;0.10;0.10;;;5.60;99.90;;;;;;5035458;28;20025;-74
2022/01/19 11:22:09;;;;;;;0.10;0.10;;;5.70;99.90;;;;;;5055306;28;20394;-74
2022/01/19 11:24:59;;;;;;;0.30;0.30;;;5.70;99.90;;;;;;5053241;28;20455;-76
2022/01/19 11:27:28;;;;;;;0.10;0.10;;;5.80;99.90;;;;;;5052774;28;20490;-77
2022/01/19 11:30:24;;;;;;;0.35;0.35;;;5.70;99.90;;;;;;5046713;28;20037;-77
2022/01/19 11:33:10;;;;;;;0.10;0.10;;;5.70;99.90;;;;;;5027040;28;20109;-77
2022/01/19 11:35:37;;;;;;;0.10;0.10;;;5.70;99.90;;;;;;5055746;28;20107;-76
2022/01/19 11:38:34;;;;;;;0.20;0.20;;;5.70;99.90;;;;;;5049567;28;20559;-78
2022/01/19 11:41:34;;;;;;;0.10;0.10;;;5.80;99.90;;;;;;5049607;28;20039;-77
2022/01/19 11:44:00;;;;;;;0.10;0.10;;;5.80;99.90;;;;;;5024763;28;20041;-77
2022/01/19 11:46:32;;;;;;;1.27;1.27;;;5.90;99.90;;;;;;5050355;28;20047;-77
2022/01/19 11:49:00;;;;;;;0.10;0.10;;;5.90;99.90;;;;;;5058119;28;20087;-73
2022/01/19 11:51:38;;;;;;;0.10;0.10;;;5.90;99.90;;;;;;5046442;28;20024;-74
2022/01/19 11:54:07;;;;;;;0.10;0.10;;;5.90;99.90;;;;;;5049652;28;20108;-73
2022/01/19 11:56:58;;;;;;;0.10;0.10;;;6.00;99.90;;;;;;5050582;28;20086;-73
2022/01/19 11:59:26;;;;;;;0.10;0.10;;;6.00;99.90;;;;;;5047148;28;20032;-73
2022/01/19 12:01:52;;;;;;;0.10;0.10;;;6.10;99.90;;;;;;5050184;28;20056;-75
2022/01/19 12:04:21;;;;;;;0.10;0.10;;;6.00;99.90;;;;;;5042539;28;20029;-73
2022/01/19 12:06:48;;;;;;;0.10;0.10;;;6.00;99.90;;;;;;5039359;28;20044;-73
2022/01/19 12:09:16;;;;;;;0.30;0.30;;;6.10;99.90;;;;;;5052941;28;20212;-73
2022/01/19 12:11:53;;;;;;;0.10;0.10;;;6.20;99.90;;;;;;5046933;28;20032;-73
2022/01/19 12:14:33;;;;;;;0.10;0.10;;;6.30;99.90;;;;;;5053879;28;20135;-73
2022/01/19 12:17:04;;;;;;;0.10;0.10;;;6.20;99.90;;;;;;5048488;28;20399;-74
2022/01/19 12:19:38;;;;;;;0.10;0.10;;;6.30;99.90;;;;;;5049608;28;20029;-73
2022/01/19 12:22:21;;;;;;;0.10;0.10;;;6.10;99.90;;;;;;5044847;28;20031;-73
2022/01/19 12:25:13;;;;;;;0.10;0.10;;;5.90;99.90;;;;;;5049639;28;20025;-73
2022/01/19 12:27:50;;;;;;;0.10;0.10;;;5.90;99.90;;;;;;5049546;28;20094;-72
2022/01/19 12:30:19;;;;;;;0.10;0.10;;;6.00;99.90;;;;;;5050269;28;20450;-72
2022/01/19 12:32:54;;;;;;;0.10;0.10;;;6.00;99.90;;;;;;5048514;28;20029;-72
2022/01/19 12:35:23;;;;;;;0.17;0.17;;;5.90;99.90;;;;;;5050273;28;20051;-73
2022/01/19 12:37:55;;;;;;;0.10;0.10;;;6.00;99.90;;;;;;5056038;28;20505;-73
2022/01/19 12:40:22;;;;;;;0.10;0.10;;;6.00;99.90;;;;;;5049559;28;20025;-74
2022/01/19 12:42:56;;;;;;;0.10;0.10;;;6.10;99.90;;;;;;5048318;28;20076;-73
2022/01/19 12:45:29;;;;;;;0.10;0.10;;;6.10;99.90;;;;;;5049932;28;20495;-73
2022/01/19 12:47:56;;;;;;;2.00;1.90;;;6.00;99.90;;;;;;5048887;28;20455;-72
2022/01/19 12:50:22;;;;;;;4.47;4.18;;;6.20;99.90;;;;;;5049721;28;20051;-74
2022/01/19 12:52:52;;;;;;;0.10;0.10;;;6.20;99.90;;;;;;5049961;28;20418;-72
2022/01/19 12:55:19;;;;;;;0.00;0.00;;;6.30;99.90;;;;;;5050612;28;20056;-73
2022/01/19 12:57:47;;;;;;;0.63;0.63;;;6.50;99.90;;;;;;5052256;28;20043;-74
2022/01/19 13:00:16;;;;;;;0.10;0.10;;;6.80;99.90;;;;;;5048942;28;20082;-73
2022/01/19 13:02:42;;;;;;;0.10;0.10;;;6.80;99.90;;;;;;5048953;28;20025;-73
2022/01/19 13:05:14;;;;;;;0.08;0.08;;;6.50;99.90;;;;;;5056080;28;20062;-73
2022/01/19 13:08:02;;;;;;;0.10;0.10;;;6.70;99.90;;;;;;5056968;28;20074;-73
2022/01/19 13:15:43;;;;;;;0.10;0.10;;;6.60;99.90;;;;;;5047994;28;20044;-72
2022/01/19 13:18:10;;;;;;;0.10;0.10;;;6.50;99.90;;;;;;5049295;28;20040;-74
2022/01/19 13:20:36;;;;;;;0.10;0.10;;;6.50;99.90;;;;;;5041951;28;20444;-73
2022/01/19 13:23:04;;;;;;;0.10;0.10;;;6.50;99.90;;;;;;5050394;28;20036;-74
2022/01/19 13:25:33;;;;;;;0.10;0.10;;;6.60;99.90;;;;;;5047236;28;20114;-73
2022/01/19 13:28:02;;;;;;;0.10;0.10;;;6.50;99.90;;;;;;5046339;28;20491;-73
2022/01/19 13:30:31;;;;;;;0.15;0.15;;;6.50;99.90;;;;;;5047448;28;20087;-74
2022/01/19 13:32:57;;;;;;;0.10;0.10;;;6.60;99.90;;;;;;5050436;28;20094;-73
2022/01/19 13:35:25;;;;;;;0.10;0.10;;;6.80;99.90;;;;;;5049123;28;20047;-73
2022/01/19 13:37:58;;;;;;;0.10;0.10;;;6.70;99.90;;;;;;5045647;28;20149;-74
2022/01/19 13:40:28;;;;;;;0.10;0.10;;;6.80;99.90;;;;;;5067317;22;20430;-73
2022/01/19 13:43:05;;;;;;;0.10;0.10;;;6.80;99.90;;;;;;5083060;28;20454;-74
2022/01/19 13:50:42;;;;;;;0.10;0.10;;;6.80;99.90;;;;;;5087385;28;20031;-72
2022/01/19 14:04:34;;;;;;;0.10;0.10;;;7.50;99.90;;;;;;6022988;22;20109;-71
2022/01/19 14:07:05;;;;;;;0.00;0.00;;;8.20;99.90;;;;;;5086363;28;20036;-72
2022/01/19 14:09:31;;;;;;;0.00;0.00;;;9.80;99.90;;;;;;5084180;28;20069;-72
2022/01/19 14:12:03;;;;;;;0.10;0.10;;;9.50;99.90;;;;;;5079902;28;20032;-72
2022/01/19 14:14:56;;;;;;;0.10;0.10;;;10.00;99.90;;;;;;5089452;28;20017;-73
2022/01/19 14:17:31;;;;;;;0.10;0.10;;;11.80;99.90;;;;;;5063197;28;20028;-73
2022/01/19 14:19:58;;;;;;;0.00;0.00;;;11.70;95.00;;;;;;5086232;28;20083;-73
2022/01/19 14:22:34;;;;;;;0.10;0.10;;;10.70;96.80;;;;;;5072412;28;20031;-73
2022/01/19 14:25:07;;;;;;;0.00;0.00;;;9.40;99.90;;;;;;5087823;28;20024;-74
2022/01/19 14:27:34;;;;;;;0.10;0.10;;;8.50;99.90;;;;;;5087570;28;20196;-73
2022/01/19 14:30:08;;;;;;;0.10;0.10;;;8.20;99.90;;;;;;5083851;28;20039;-73
2022/01/19 14:32:37;;;;;;;0.10;0.10;;;7.80;99.90;;;;;;5089128;28;20028;-73
2022/01/19 14:35:22;;;;;;;0.10;0.10;;;7.40;99.90;;;;;;5068499;28;20039;-73
2022/01/19 14:37:58;;;;;;;0.10;0.10;;;7.20;99.90;;;;;;5085736;28;20050;-73
2022/01/19 14:40:24;;;;;;;0.10;0.10;;;7.10;99.90;;;;;;5086480;28;20024;-73
2022/01/19 14:42:51;;;;;;;0.10;0.10;;;6.90;99.90;;;;;;5089352;28;20040;-72
2022/01/19 14:45:25;;;;;;;0.10;0.10;;;6.80;99.90;;;;;;5088071;28;20024;-72
2022/01/19 14:47:54;;;;;;;0.10;0.10;;;6.80;99.90;;;;;;5085061;28;20103;-73
2022/01/19 14:50:31;;;;;;;0.10;0.10;;;6.70;99.90;;;;;;5089669;28;20019;-73
2022/01/19 14:52:57;;;;;;;1.58;1.50;;;6.70;99.90;;;;;;5082273;28;20066;-73
2022/01/19 14:55:28;;;;;;;0.10;0.10;;;6.60;99.90;;;;;;5074693;28;20019;-73
2022/01/19 14:57:54;;;;;;;0.10;0.10;;;6.60;99.90;;;;;;5087047;28;20089;-73
2022/01/19 15:00:21;;;;;;;0.10;0.10;;;6.50;99.90;;;;;;5088700;28;20028;-73